Terminal Aerodrome Forecast
Issued by NWS

Home | Current Version | Previous Version | Text Only | Print | Product List | Glossary On
Versions: 1 2 3 4 5 6 7 8 9 10 11 12 13 14 15 16 17
000
FTUS44 KCRP 282327
TAFALI
TAF
KALI 282327Z 2900/2924 02008KT P6SM VCSH SCT050
     FM290200 03004KT P6SM FEW020 BKN050
     FM291200 36006KT P6SM VCSH BKN035
     FM292000 07012KT P6SM VCTS SCT035CB BKN050=

USA.gov is the U.S. government's official web portal to all federal, state and local government web resources and services.